sensor_id;sensor_type;location;lat;lon;timestamp;P1;durP1;ratioP1;P2;durP2;ratioP2
3997;SDS011;61314;53.444;9.902;2023-05-10T00:01:20;2.87;;;2.67;;
3997;SDS011;61314;53.444;9.902;2023-05-10T00:03:47;3.40;;;3.13;;
3997;SDS011;61314;53.444;9.902;2023-05-10T00:06:14;3.90;;;3.13;;
3997;SDS011;61314;53.444;9.902;2023-05-10T00:08:41;5.80;;;2.90;;
3997;SDS011;61314;53.444;9.902;2023-05-10T00:11:08;8.83;;;3.10;;
3997;SDS011;61314;53.444;9.902;2023-05-10T00:13:35;3.20;;;3.00;;
3997;SDS011;61314;53.444;9.902;2023-05-10T00:16:03;3.27;;;3.00;;
3997;SDS011;61314;53.444;9.902;2023-05-10T00:18:30;3.83;;;3.33;;
3997;SDS011;61314;53.444;9.902;2023-05-10T00:20:57;4.20;;;3.43;;
3997;SDS011;61314;53.444;9.902;2023-05-10T00:23:23;6.00;;;2.70;;
3997;SDS011;61314;53.444;9.902;2023-05-10T00:25:51;3.37;;;3.07;;
3997;SDS011;61314;53.444;9.902;2023-05-10T00:28:18;2.87;;;2.67;;
3997;SDS011;61314;53.444;9.902;2023-05-10T00:30:45;8.63;;;3.00;;
3997;SDS011;61314;53.444;9.902;2023-05-10T00:33:12;4.13;;;2.90;;
3997;SDS011;61314;53.444;9.902;2023-05-10T00:35:39;3.57;;;3.27;;
3997;SDS011;61314;53.444;9.902;2023-05-10T00:38:06;3.90;;;3.43;;
3997;SDS011;61314;53.444;9.902;2023-05-10T00:40:35;3.67;;;3.37;;
3997;SDS011;61314;53.444;9.902;2023-05-10T00:43:02;3.87;;;3.57;;
3997;SDS011;61314;53.444;9.902;2023-05-10T00:45:33;3.87;;;3.43;;
3997;SDS011;61314;53.444;9.902;2023-05-10T00:48:02;7.97;;;3.53;;
3997;SDS011;61314;53.444;9.902;2023-05-10T00:50:30;4.77;;;3.47;;
3997;SDS011;61314;53.444;9.902;2023-05-10T00:52:58;4.00;;;3.37;;
3997;SDS011;61314;53.444;9.902;2023-05-10T00:55:26;3.93;;;3.47;;
3997;SDS011;61314;53.444;9.902;2023-05-10T00:57:53;4.20;;;3.67;;
3997;SDS011;61314;53.444;9.902;2023-05-10T01:00:20;7.73;;;4.07;;
3997;SDS011;61314;53.444;9.902;2023-05-10T01:02:49;3.97;;;3.57;;
3997;SDS011;61314;53.444;9.902;2023-05-10T01:05:16;6.00;;;3.70;;
3997;SDS011;61314;53.444;9.902;2023-05-10T01:07:43;3.90;;;3.60;;
3997;SDS011;61314;53.444;9.902;2023-05-10T01:10:10;3.43;;;3.07;;
3997;SDS011;61314;53.444;9.902;2023-05-10T01:12:39;7.57;;;4.30;;
3997;SDS011;61314;53.444;9.902;2023-05-10T01:15:07;5.93;;;4.50;;
3997;SDS011;61314;53.444;9.902;2023-05-10T01:17:35;3.87;;;3.50;;
3997;SDS011;61314;53.444;9.902;2023-05-10T01:20:02;4.80;;;3.73;;
3997;SDS011;61314;53.444;9.902;2023-05-10T01:27:47;4.23;;;3.63;;
3997;SDS011;61314;53.444;9.902;2023-05-10T01:30:33;6.20;;;4.13;;
3997;SDS011;61314;53.444;9.902;2023-05-10T01:33:09;4.50;;;3.87;;
3997;SDS011;61314;53.444;9.902;2023-05-10T01:38:14;5.60;;;3.97;;
3997;SDS011;61314;53.444;9.902;2023-05-10T01:40:44;7.90;;;3.37;;
3997;SDS011;61314;53.444;9.902;2023-05-10T01:43:17;12.83;;;4.23;;
3997;SDS011;61314;53.444;9.902;2023-05-10T01:45:59;4.30;;;4.00;;
3997;SDS011;61314;53.444;9.902;2023-05-10T01:48:30;9.43;;;4.30;;
3997;SDS011;61314;53.444;9.902;2023-05-10T01:50:57;5.53;;;3.50;;
3997;SDS011;61314;53.444;9.902;2023-05-10T01:53:24;7.57;;;5.07;;
3997;SDS011;61314;53.444;9.902;2023-05-10T01:55:52;8.50;;;4.43;;
3997;SDS011;61314;53.444;9.902;2023-05-10T01:58:22;4.13;;;3.73;;
3997;SDS011;61314;53.444;9.902;2023-05-10T02:00:50;4.07;;;3.57;;
3997;SDS011;61314;53.444;9.902;2023-05-10T02:03:18;4.67;;;4.27;;
3997;SDS011;61314;53.444;9.902;2023-05-10T02:05:48;4.70;;;4.37;;
3997;SDS011;61314;53.444;9.902;2023-05-10T02:08:15;6.23;;;3.50;;
3997;SDS011;61314;53.444;9.902;2023-05-10T02:10:44;6.80;;;4.10;;
3997;SDS011;61314;53.444;9.902;2023-05-10T02:13:12;4.30;;;3.90;;
3997;SDS011;61314;53.444;9.902;2023-05-10T02:15:39;5.90;;;4.70;;
3997;SDS011;61314;53.444;9.902;2023-05-10T02:18:08;6.73;;;4.53;;
3997;SDS011;61314;53.444;9.902;2023-05-10T02:20:37;5.63;;;3.97;;
3997;SDS011;61314;53.444;9.902;2023-05-10T02:23:04;6.57;;;4.10;;
3997;SDS011;61314;53.444;9.902;2023-05-10T02:25:31;7.60;;;4.07;;
3997;SDS011;61314;53.444;9.902;2023-05-10T02:28:00;5.77;;;4.50;;
3997;SDS011;61314;53.444;9.902;2023-05-10T02:30:28;5.00;;;4.23;;
3997;SDS011;61314;53.444;9.902;2023-05-10T02:32:55;5.17;;;4.70;;
3997;SDS011;61314;53.444;9.902;2023-05-10T02:35:23;4.10;;;3.80;;
3997;SDS011;61314;53.444;9.902;2023-05-10T02:37:50;3.93;;;3.63;;
3997;SDS011;61314;53.444;9.902;2023-05-10T02:40:17;6.20;;;5.03;;
3997;SDS011;61314;53.444;9.902;2023-05-10T02:42:45;7.53;;;4.23;;
3997;SDS011;61314;53.444;9.902;2023-05-10T02:45:15;4.90;;;4.33;;
3997;SDS011;61314;53.444;9.902;2023-05-10T02:47:43;4.97;;;4.60;;
3997;SDS011;61314;53.444;9.902;2023-05-10T02:50:13;7.30;;;5.20;;
3997;SDS011;61314;53.444;9.902;2023-05-10T02:52:51;5.27;;;4.87;;
3997;SDS011;61314;53.444;9.902;2023-05-10T02:55:19;7.50;;;5.07;;
3997;SDS011;61314;53.444;9.902;2023-05-10T02:57:52;5.03;;;4.53;;
3997;SDS011;61314;53.444;9.902;2023-05-10T03:00:21;4.60;;;4.03;;
3997;SDS011;61314;53.444;9.902;2023-05-10T03:02:48;12.87;;;4.90;;
3997;SDS011;61314;53.444;9.902;2023-05-10T03:05:15;6.70;;;5.50;;
3997;SDS011;61314;53.444;9.902;2023-05-10T03:07:42;6.33;;;5.27;;
3997;SDS011;61314;53.444;9.902;2023-05-10T03:10:09;7.43;;;5.40;;
3997;SDS011;61314;53.444;9.902;2023-05-10T03:15:06;7.47;;;4.33;;
3997;SDS011;61314;53.444;9.902;2023-05-10T03:20:03;6.93;;;5.10;;
3997;SDS011;61314;53.444;9.902;2023-05-10T03:22:31;4.43;;;4.03;;
3997;SDS011;61314;53.444;9.902;2023-05-10T03:24:58;4.23;;;3.93;;
3997;SDS011;61314;53.444;9.902;2023-05-10T03:27:26;5.93;;;4.80;;
3997;SDS011;61314;53.444;9.902;2023-05-10T03:29:54;4.30;;;3.90;;
3997;SDS011;61314;53.444;9.902;2023-05-10T03:32:22;5.77;;;5.00;;
3997;SDS011;61314;53.444;9.902;2023-05-10T03:34:49;12.63;;;4.70;;
3997;SDS011;61314;53.444;9.902;2023-05-10T03:37:16;4.57;;;4.17;;
3997;SDS011;61314;53.444;9.902;2023-05-10T03:39:43;12.00;;;4.97;;
3997;SDS011;61314;53.444;9.902;2023-05-10T03:42:10;6.17;;;4.80;;
3997;SDS011;61314;53.444;9.902;2023-05-10T03:44:38;5.73;;;5.10;;
3997;SDS011;61314;53.444;9.902;2023-05-10T03:47:06;7.50;;;5.47;;
3997;SDS011;61314;53.444;9.902;2023-05-10T03:49:33;7.43;;;4.57;;
3997;SDS011;61314;53.444;9.902;2023-05-10T03:52:00;4.40;;;4.10;;
3997;SDS011;61314;53.444;9.902;2023-05-10T03:54:27;9.63;;;4.47;;
3997;SDS011;61314;53.444;9.902;2023-05-10T03:56:53;10.20;;;4.20;;
3997;SDS011;61314;53.444;9.902;2023-05-10T03:59:20;6.47;;;5.00;;
3997;SDS011;61314;53.444;9.902;2023-05-10T04:01:47;8.93;;;6.30;;
3997;SDS011;61314;53.444;9.902;2023-05-10T04:04:14;5.00;;;4.57;;
3997;SDS011;61314;53.444;9.902;2023-05-10T04:06:44;8.30;;;5.43;;
3997;SDS011;61314;53.444;9.902;2023-05-10T04:09:11;5.13;;;4.63;;
3997;SDS011;61314;53.444;9.902;2023-05-10T04:11:38;6.30;;;4.90;;
3997;SDS011;61314;53.444;9.902;2023-05-10T04:14:05;4.93;;;4.50;;
3997;SDS011;61314;53.444;9.902;2023-05-10T04:16:32;12.60;;;5.40;;
3997;SDS011;61314;53.444;9.902;2023-05-10T04:18:59;5.40;;;4.53;;
3997;SDS011;61314;53.444;9.902;2023-05-10T04:21:26;5.73;;;4.87;;
3997;SDS011;61314;53.444;9.902;2023-05-10T04:23:53;5.50;;;4.67;;
3997;SDS011;61314;53.444;9.902;2023-05-10T04:26:20;6.57;;;5.03;;
3997;SDS011;61314;53.444;9.902;2023-05-10T04:28:48;5.20;;;4.60;;
3997;SDS011;61314;53.444;9.902;2023-05-10T04:31:15;5.57;;;4.97;;
3997;SDS011;61314;53.444;9.902;2023-05-10T04:33:42;6.00;;;5.10;;
3997;SDS011;61314;53.444;9.902;2023-05-10T04:36:09;8.70;;;5.40;;
3997;SDS011;61314;53.444;9.902;2023-05-10T04:38:36;8.23;;;5.07;;
3997;SDS011;61314;53.444;9.902;2023-05-10T04:41:03;5.53;;;5.03;;
3997;SDS011;61314;53.444;9.902;2023-05-10T04:43:31;4.80;;;4.40;;
3997;SDS011;61314;53.444;9.902;2023-05-10T04:45:58;5.70;;;5.07;;
3997;SDS011;61314;53.444;9.902;2023-05-10T04:48:25;7.83;;;4.80;;
3997;SDS011;61314;53.444;9.902;2023-05-10T04:50:52;7.70;;;5.20;;
3997;SDS011;61314;53.444;9.902;2023-05-10T04:53:19;6.10;;;4.77;;
3997;SDS011;61314;53.444;9.902;2023-05-10T04:55:46;7.00;;;5.30;;
3997;SDS011;61314;53.444;9.902;2023-05-10T04:58:13;9.27;;;5.80;;
3997;SDS011;61314;53.444;9.902;2023-05-10T05:00:40;8.53;;;5.47;;
3997;SDS011;61314;53.444;9.902;2023-05-10T05:03:08;7.77;;;4.97;;
3997;SDS011;61314;53.444;9.902;2023-05-10T05:05:35;10.50;;;4.57;;
3997;SDS011;61314;53.444;9.902;2023-05-10T05:08:02;5.83;;;5.23;;
3997;SDS011;61314;53.444;9.902;2023-05-10T05:10:29;5.20;;;4.70;;
3997;SDS011;61314;53.444;9.902;2023-05-10T05:12:57;5.13;;;3.80;;
3997;SDS011;61314;53.444;9.902;2023-05-10T05:15:24;5.30;;;4.80;;
3997;SDS011;61314;53.444;9.902;2023-05-10T05:17:51;5.03;;;4.73;;
3997;SDS011;61314;53.444;9.902;2023-05-10T05:20:18;6.13;;;5.27;;
3997;SDS011;61314;53.444;9.902;2023-05-10T05:22:45;8.47;;;5.00;;
3997;SDS011;61314;53.444;9.902;2023-05-10T05:25:12;8.30;;;4.90;;
3997;SDS011;61314;53.444;9.902;2023-05-10T05:27:39;6.20;;;5.70;;
3997;SDS011;61314;53.444;9.902;2023-05-10T05:30:06;5.40;;;4.90;;
3997;SDS011;61314;53.444;9.902;2023-05-10T05:32:33;5.83;;;5.20;;
3997;SDS011;61314;53.444;9.902;2023-05-10T05:35:00;5.53;;;5.03;;
3997;SDS011;61314;53.444;9.902;2023-05-10T05:37:27;8.50;;;4.60;;
3997;SDS011;61314;53.444;9.902;2023-05-10T05:39:54;5.80;;;5.30;;
3997;SDS011;61314;53.444;9.902;2023-05-10T05:42:21;5.77;;;5.13;;
3997;SDS011;61314;53.444;9.902;2023-05-10T05:44:48;5.87;;;4.70;;
3997;SDS011;61314;53.444;9.902;2023-05-10T05:47:15;5.50;;;4.83;;
3997;SDS011;61314;53.444;9.902;2023-05-10T05:49:42;9.70;;;5.80;;
3997;SDS011;61314;53.444;9.902;2023-05-10T05:52:11;12.80;;;5.40;;
3997;SDS011;61314;53.444;9.902;2023-05-10T05:54:38;5.60;;;5.10;;
3997;SDS011;61314;53.444;9.902;2023-05-10T05:57:05;9.50;;;4.80;;
3997;SDS011;61314;53.444;9.902;2023-05-10T05:59:33;5.37;;;4.87;;
3997;SDS011;61314;53.444;9.902;2023-05-10T06:02:00;12.23;;;5.00;;
3997;SDS011;61314;53.444;9.902;2023-05-10T06:04:27;5.60;;;5.10;;
3997;SDS011;61314;53.444;9.902;2023-05-10T06:06:54;5.50;;;4.80;;
3997;SDS011;61314;53.444;9.902;2023-05-10T06:09:21;10.63;;;6.13;;
3997;SDS011;61314;53.444;9.902;2023-05-10T06:11:50;9.47;;;5.43;;
3997;SDS011;61314;53.444;9.902;2023-05-10T06:14:17;5.13;;;4.77;;
3997;SDS011;61314;53.444;9.902;2023-05-10T06:16:46;9.47;;;5.50;;
3997;SDS011;61314;53.444;9.902;2023-05-10T06:19:13;6.27;;;4.57;;
3997;SDS011;61314;53.444;9.902;2023-05-10T06:21:41;8.17;;;4.87;;
3997;SDS011;61314;53.444;9.902;2023-05-10T06:24:08;8.30;;;5.63;;
3997;SDS011;61314;53.444;9.902;2023-05-10T06:26:35;5.97;;;5.17;;
3997;SDS011;61314;53.444;9.902;2023-05-10T06:29:02;5.77;;;5.10;;
3997;SDS011;61314;53.444;9.902;2023-05-10T06:31:29;7.73;;;5.13;;
3997;SDS011;61314;53.444;9.902;2023-05-10T06:33:56;5.07;;;4.67;;
3997;SDS011;61314;53.444;9.902;2023-05-10T06:36:23;12.73;;;5.37;;
3997;SDS011;61314;53.444;9.902;2023-05-10T06:38:52;5.63;;;5.13;;
3997;SDS011;61314;53.444;9.902;2023-05-10T06:41:19;6.50;;;5.50;;
3997;SDS011;61314;53.444;9.902;2023-05-10T06:43:49;8.23;;;5.30;;
3997;SDS011;61314;53.444;9.902;2023-05-10T06:46:16;11.00;;;4.90;;
3997;SDS011;61314;53.444;9.902;2023-05-10T06:48:43;8.33;;;4.50;;
3997;SDS011;61314;53.444;9.902;2023-05-10T06:51:11;5.50;;;4.83;;
3997;SDS011;61314;53.444;9.902;2023-05-10T06:53:38;7.07;;;5.53;;
3997;SDS011;61314;53.444;9.902;2023-05-10T06:56:05;6.20;;;5.67;;
3997;SDS011;61314;53.444;9.902;2023-05-10T06:58:32;5.43;;;4.93;;
3997;SDS011;61314;53.444;9.902;2023-05-10T07:01:03;6.23;;;5.63;;
3997;SDS011;61314;53.444;9.902;2023-05-10T07:03:30;8.80;;;4.83;;
3997;SDS011;61314;53.444;9.902;2023-05-10T07:05:59;6.87;;;4.67;;
3997;SDS011;61314;53.444;9.902;2023-05-10T07:08:27;7.83;;;5.47;;
3997;SDS011;61314;53.444;9.902;2023-05-10T07:10:59;8.00;;;6.07;;
3997;SDS011;61314;53.444;9.902;2023-05-10T07:13:26;5.73;;;5.27;;
3997;SDS011;61314;53.444;9.902;2023-05-10T07:15:53;8.33;;;4.80;;
3997;SDS011;61314;53.444;9.902;2023-05-10T07:18:20;5.90;;;5.40;;
3997;SDS011;61314;53.444;9.902;2023-05-10T07:20:47;5.63;;;5.10;;
3997;SDS011;61314;53.444;9.902;2023-05-10T07:23:14;5.77;;;4.90;;
3997;SDS011;61314;53.444;9.902;2023-05-10T07:25:41;6.97;;;5.20;;
3997;SDS011;61314;53.444;9.902;2023-05-10T07:28:08;5.33;;;4.83;;
3997;SDS011;61314;53.444;9.902;2023-05-10T07:30:35;6.97;;;5.60;;
3997;SDS011;61314;53.444;9.902;2023-05-10T07:33:02;8.17;;;4.30;;
3997;SDS011;61314;53.444;9.902;2023-05-10T07:35:29;6.63;;;4.70;;
3997;SDS011;61314;53.444;9.902;2023-05-10T07:37:56;5.80;;;5.20;;
3997;SDS011;61314;53.444;9.902;2023-05-10T07:40:23;5.83;;;5.30;;
3997;SDS011;61314;53.444;9.902;2023-05-10T07:42:51;9.67;;;4.17;;
3997;SDS011;61314;53.444;9.902;2023-05-10T07:45:18;6.77;;;5.27;;
3997;SDS011;61314;53.444;9.902;2023-05-10T07:47:45;8.07;;;6.00;;
3997;SDS011;61314;53.444;9.902;2023-05-10T07:50:12;6.97;;;5.30;;
3997;SDS011;61314;53.444;9.902;2023-05-10T07:52:39;5.50;;;5.03;;
3997;SDS011;61314;53.444;9.902;2023-05-10T07:55:06;5.50;;;4.80;;
3997;SDS011;61314;53.444;9.902;2023-05-10T07:57:33;7.63;;;4.53;;
3997;SDS011;61314;53.444;9.902;2023-05-10T08:00:00;5.70;;;4.80;;
3997;SDS011;61314;53.444;9.902;2023-05-10T08:02:27;6.73;;;5.10;;
3997;SDS011;61314;53.444;9.902;2023-05-10T08:04:55;7.60;;;5.10;;
3997;SDS011;61314;53.444;9.902;2023-05-10T08:07:24;6.90;;;5.20;;
3997;SDS011;61314;53.444;9.902;2023-05-10T08:09:51;5.67;;;4.83;;
3997;SDS011;61314;53.444;9.902;2023-05-10T08:12:18;9.70;;;5.27;;
3997;SDS011;61314;53.444;9.902;2023-05-10T08:14:44;5.70;;;5.20;;
3997;SDS011;61314;53.444;9.902;2023-05-10T08:17:11;6.50;;;5.77;;
3997;SDS011;61314;53.444;9.902;2023-05-10T08:19:38;5.77;;;5.27;;
3997;SDS011;61314;53.444;9.902;2023-05-10T08:22:05;7.53;;;5.23;;
3997;SDS011;61314;53.444;9.902;2023-05-10T08:24:32;7.33;;;5.87;;
3997;SDS011;61314;53.444;9.902;2023-05-10T08:27:07;9.77;;;5.93;;
3997;SDS011;61314;53.444;9.902;2023-05-10T08:29:34;6.27;;;5.27;;
3997;SDS011;61314;53.444;9.902;2023-05-10T08:32:15;9.73;;;6.50;;
3997;SDS011;61314;53.444;9.902;2023-05-10T08:34:42;13.83;;;6.00;;
3997;SDS011;61314;53.444;9.902;2023-05-10T08:37:09;8.30;;;6.00;;
3997;SDS011;61314;53.444;9.902;2023-05-10T08:39:39;6.00;;;5.50;;
3997;SDS011;61314;53.444;9.902;2023-05-10T08:42:06;6.40;;;5.77;;
3997;SDS011;61314;53.444;9.902;2023-05-10T08:44:34;6.13;;;5.63;;
3997;SDS011;61314;53.444;9.902;2023-05-10T08:47:04;10.50;;;6.30;;
3997;SDS011;61314;53.444;9.902;2023-05-10T08:49:32;9.10;;;6.50;;
3997;SDS011;61314;53.444;9.902;2023-05-10T08:52:00;6.30;;;5.70;;
3997;SDS011;61314;53.444;9.902;2023-05-10T08:54:29;7.53;;;6.23;;
3997;SDS011;61314;53.444;9.902;2023-05-10T08:56:57;9.07;;;5.83;;
3997;SDS011;61314;53.444;9.902;2023-05-10T08:59:24;7.20;;;6.47;;
3997;SDS011;61314;53.444;9.902;2023-05-10T09:01:52;7.77;;;6.00;;
3997;SDS011;61314;53.444;9.902;2023-05-10T09:04:20;7.17;;;5.17;;
3997;SDS011;61314;53.444;9.902;2023-05-10T09:06:47;6.83;;;5.87;;
3997;SDS011;61314;53.444;9.902;2023-05-10T09:09:14;8.50;;;5.50;;
3997;SDS011;61314;53.444;9.902;2023-05-10T09:11:42;8.13;;;6.37;;
3997;SDS011;61314;53.444;9.902;2023-05-10T09:14:10;7.47;;;6.53;;
3997;SDS011;61314;53.444;9.902;2023-05-10T09:16:38;9.13;;;6.33;;
3997;SDS011;61314;53.444;9.902;2023-05-10T09:19:05;7.43;;;6.70;;
3997;SDS011;61314;53.444;9.902;2023-05-10T09:21:37;6.87;;;6.37;;
3997;SDS011;61314;53.444;9.902;2023-05-10T09:24:05;8.20;;;6.00;;
3997;SDS011;61314;53.444;9.902;2023-05-10T09:26:32;7.00;;;6.27;;
3997;SDS011;61314;53.444;9.902;2023-05-10T09:28:59;7.50;;;6.80;;
3997;SDS011;61314;53.444;9.902;2023-05-10T09:31:47;7.80;;;7.00;;
3997;SDS011;61314;53.444;9.902;2023-05-10T09:34:21;14.43;;;6.87;;
3997;SDS011;61314;53.444;9.902;2023-05-10T09:36:55;8.10;;;7.40;;
3997;SDS011;61314;53.444;9.902;2023-05-10T09:39:29;8.03;;;6.57;;
3997;SDS011;61314;53.444;9.902;2023-05-10T09:41:57;6.70;;;6.03;;
3997;SDS011;61314;53.444;9.902;2023-05-10T09:44:25;8.60;;;7.20;;
3997;SDS011;61314;53.444;9.902;2023-05-10T09:46:52;11.20;;;6.10;;
3997;SDS011;61314;53.444;9.902;2023-05-10T09:49:20;8.60;;;6.83;;
3997;SDS011;61314;53.444;9.902;2023-05-10T09:51:50;6.90;;;6.37;;
3997;SDS011;61314;53.444;9.902;2023-05-10T09:54:26;8.47;;;7.57;;
3997;SDS011;61314;53.444;9.902;2023-05-10T09:56:53;6.30;;;5.80;;
3997;SDS011;61314;53.444;9.902;2023-05-10T09:59:20;6.83;;;6.23;;
3997;SDS011;61314;53.444;9.902;2023-05-10T10:01:50;6.97;;;6.30;;
3997;SDS011;61314;53.444;9.902;2023-05-10T10:04:18;8.03;;;7.23;;
3997;SDS011;61314;53.444;9.902;2023-05-10T10:06:47;13.47;;;7.97;;
3997;SDS011;61314;53.444;9.902;2023-05-10T10:09:24;7.17;;;6.57;;
3997;SDS011;61314;53.444;9.902;2023-05-10T10:11:52;9.13;;;7.37;;
3997;SDS011;61314;53.444;9.902;2023-05-10T10:14:19;7.00;;;6.40;;
3997;SDS011;61314;53.444;9.902;2023-05-10T10:16:46;14.30;;;8.33;;
3997;SDS011;61314;53.444;9.902;2023-05-10T10:19:35;8.90;;;8.00;;
3997;SDS011;61314;53.444;9.902;2023-05-10T10:22:03;9.20;;;7.87;;
3997;SDS011;61314;53.444;9.902;2023-05-10T10:24:30;10.17;;;9.17;;
3997;SDS011;61314;53.444;9.902;2023-05-10T10:27:15;8.83;;;8.00;;
3997;SDS011;61314;53.444;9.902;2023-05-10T10:35:15;10.17;;;8.47;;
3997;SDS011;61314;53.444;9.902;2023-05-10T10:37:43;12.00;;;7.93;;
3997;SDS011;61314;53.444;9.902;2023-05-10T10:40:29;9.93;;;8.67;;
3997;SDS011;61314;53.444;9.902;2023-05-10T10:43:22;10.37;;;9.30;;
3997;SDS011;61314;53.444;9.902;2023-05-10T10:45:56;11.20;;;8.80;;
3997;SDS011;61314;53.444;9.902;2023-05-10T10:48:34;11.73;;;9.17;;
3997;SDS011;61314;53.444;9.902;2023-05-10T10:51:01;13.93;;;9.77;;
3997;SDS011;61314;53.444;9.902;2023-05-10T10:53:29;12.83;;;10.50;;
3997;SDS011;61314;53.444;9.902;2023-05-10T10:56:06;16.40;;;10.23;;
3997;SDS011;61314;53.444;9.902;2023-05-10T10:58:35;11.70;;;10.50;;
3997;SDS011;61314;53.444;9.902;2023-05-10T11:01:10;13.40;;;10.20;;
3997;SDS011;61314;53.444;9.902;2023-05-10T11:03:37;10.93;;;9.87;;
3997;SDS011;61314;53.444;9.902;2023-05-10T11:06:05;11.33;;;10.20;;
3997;SDS011;61314;53.444;9.902;2023-05-10T11:08:32;10.87;;;9.47;;
3997;SDS011;61314;53.444;9.902;2023-05-10T11:11:04;12.67;;;11.47;;
3997;SDS011;61314;53.444;9.902;2023-05-10T11:13:37;13.53;;;12.07;;
3997;SDS011;61314;53.444;9.902;2023-05-10T11:18:51;12.30;;;10.77;;
3997;SDS011;61314;53.444;9.902;2023-05-10T11:21:19;13.13;;;10.43;;
3997;SDS011;61314;53.444;9.902;2023-05-10T11:26:13;13.70;;;12.00;;
3997;SDS011;61314;53.444;9.902;2023-05-10T11:28:41;10.83;;;9.73;;
3997;SDS011;61314;53.444;9.902;2023-05-10T11:31:08;11.40;;;10.17;;
3997;SDS011;61314;53.444;9.902;2023-05-10T11:33:50;11.27;;;10.03;;
3997;SDS011;61314;53.444;9.902;2023-05-10T11:36:18;10.33;;;9.33;;
3997;SDS011;61314;53.444;9.902;2023-05-10T11:38:46;11.07;;;9.97;;
3997;SDS011;61314;53.444;9.902;2023-05-10T11:41:14;11.33;;;10.33;;
3997;SDS011;61314;53.444;9.902;2023-05-10T11:43:42;11.87;;;10.57;;
3997;SDS011;61314;53.444;9.902;2023-05-10T11:46:12;10.80;;;9.73;;
3997;SDS011;61314;53.444;9.902;2023-05-10T11:48:40;9.93;;;8.73;;
3997;SDS011;61314;53.444;9.902;2023-05-10T11:51:07;10.67;;;9.57;;
3997;SDS011;61314;53.444;9.902;2023-05-10T11:53:35;11.37;;;10.20;;
3997;SDS011;61314;53.444;9.902;2023-05-10T11:56:02;13.07;;;9.80;;
3997;SDS011;61314;53.444;9.902;2023-05-10T11:58:30;10.07;;;9.17;;
3997;SDS011;61314;53.444;9.902;2023-05-10T12:00:58;10.17;;;9.17;;
3997;SDS011;61314;53.444;9.902;2023-05-10T12:03:27;11.33;;;10.23;;
3997;SDS011;61314;53.444;9.902;2023-05-10T12:05:55;10.70;;;9.70;;
3997;SDS011;61314;53.444;9.902;2023-05-10T12:08:23;12.60;;;9.83;;
3997;SDS011;61314;53.444;9.902;2023-05-10T12:10:51;10.83;;;9.73;;
3997;SDS011;61314;53.444;9.902;2023-05-10T12:13:19;9.37;;;8.50;;
3997;SDS011;61314;53.444;9.902;2023-05-10T12:15:46;10.53;;;9.53;;
3997;SDS011;61314;53.444;9.902;2023-05-10T12:18:13;11.23;;;10.13;;
3997;SDS011;61314;53.444;9.902;2023-05-10T12:20:41;11.03;;;10.03;;
3997;SDS011;61314;53.444;9.902;2023-05-10T12:23:09;12.63;;;10.23;;
3997;SDS011;61314;53.444;9.902;2023-05-10T12:25:37;10.33;;;9.40;;
3997;SDS011;61314;53.444;9.902;2023-05-10T12:28:06;11.73;;;10.50;;
3997;SDS011;61314;53.444;9.902;2023-05-10T12:30:34;13.27;;;10.63;;
3997;SDS011;61314;53.444;9.902;2023-05-10T12:33:02;10.43;;;9.53;;
3997;SDS011;61314;53.444;9.902;2023-05-10T12:35:30;11.20;;;10.10;;
3997;SDS011;61314;53.444;9.902;2023-05-10T12:37:57;9.53;;;8.53;;
3997;SDS011;61314;53.444;9.902;2023-05-10T12:40:24;11.30;;;9.40;;
3997;SDS011;61314;53.444;9.902;2023-05-10T12:42:51;12.03;;;10.70;;
3997;SDS011;61314;53.444;9.902;2023-05-10T12:45:18;11.33;;;8.90;;
3997;SDS011;61314;53.444;9.902;2023-05-10T12:47:45;11.90;;;9.60;;
3997;SDS011;61314;53.444;9.902;2023-05-10T12:50:12;10.80;;;9.80;;
3997;SDS011;61314;53.444;9.902;2023-05-10T12:52:40;12.07;;;10.83;;
3997;SDS011;61314;53.444;9.902;2023-05-10T12:55:07;11.00;;;10.00;;
3997;SDS011;61314;53.444;9.902;2023-05-10T12:57:34;11.33;;;10.33;;
3997;SDS011;61314;53.444;9.902;2023-05-10T13:00:01;12.50;;;10.80;;
3997;SDS011;61314;53.444;9.902;2023-05-10T13:02:28;13.03;;;9.43;;
3997;SDS011;61314;53.444;9.902;2023-05-10T13:04:55;10.13;;;9.13;;
3997;SDS011;61314;53.444;9.902;2023-05-10T13:07:22;11.00;;;9.87;;
3997;SDS011;61314;53.444;9.902;2023-05-10T13:09:49;11.27;;;10.17;;
3997;SDS011;61314;53.444;9.902;2023-05-10T13:12:16;10.60;;;9.60;;
3997;SDS011;61314;53.444;9.902;2023-05-10T13:14:43;11.73;;;9.50;;
3997;SDS011;61314;53.444;9.902;2023-05-10T13:17:10;10.00;;;9.00;;
3997;SDS011;61314;53.444;9.902;2023-05-10T13:19:37;9.77;;;9.07;;
3997;SDS011;61314;53.444;9.902;2023-05-10T13:22:04;11.23;;;9.17;;
3997;SDS011;61314;53.444;9.902;2023-05-10T13:24:31;9.93;;;9.03;;
3997;SDS011;61314;53.444;9.902;2023-05-10T13:26:58;9.87;;;9.07;;
3997;SDS011;61314;53.444;9.902;2023-05-10T13:29:26;10.30;;;9.37;;
3997;SDS011;61314;53.444;9.902;2023-05-10T13:31:53;9.03;;;8.20;;
3997;SDS011;61314;53.444;9.902;2023-05-10T13:34:20;10.67;;;9.57;;
3997;SDS011;61314;53.444;9.902;2023-05-10T13:36:47;10.20;;;9.10;;
3997;SDS011;61314;53.444;9.902;2023-05-10T13:39:14;10.67;;;9.67;;
3997;SDS011;61314;53.444;9.902;2023-05-10T13:41:41;10.23;;;9.40;;
3997;SDS011;61314;53.444;9.902;2023-05-10T13:44:09;10.57;;;9.63;;
3997;SDS011;61314;53.444;9.902;2023-05-10T13:46:36;9.30;;;8.30;;
3997;SDS011;61314;53.444;9.902;2023-05-10T13:49:04;9.57;;;8.67;;
3997;SDS011;61314;53.444;9.902;2023-05-10T13:51:31;10.23;;;9.17;;
3997;SDS011;61314;53.444;9.902;2023-05-10T13:53:58;9.53;;;8.70;;
3997;SDS011;61314;53.444;9.902;2023-05-10T13:56:25;10.47;;;9.40;;
3997;SDS011;61314;53.444;9.902;2023-05-10T13:58:52;10.73;;;9.70;;
3997;SDS011;61314;53.444;9.902;2023-05-10T14:01:19;10.07;;;9.13;;
3997;SDS011;61314;53.444;9.902;2023-05-10T14:03:46;10.10;;;9.17;;
3997;SDS011;61314;53.444;9.902;2023-05-10T14:06:14;9.20;;;8.40;;
3997;SDS011;61314;53.444;9.902;2023-05-10T14:08:41;11.23;;;9.20;;
3997;SDS011;61314;53.444;9.902;2023-05-10T14:11:08;11.00;;;8.00;;
3997;SDS011;61314;53.444;9.902;2023-05-10T14:13:35;8.43;;;7.57;;
3997;SDS011;61314;53.444;9.902;2023-05-10T14:16:02;8.83;;;7.73;;
3997;SDS011;61314;53.444;9.902;2023-05-10T14:18:29;8.43;;;7.73;;
3997;SDS011;61314;53.444;9.902;2023-05-10T14:20:56;8.13;;;7.43;;
3997;SDS011;61314;53.444;9.902;2023-05-10T14:23:23;8.37;;;7.57;;
3997;SDS011;61314;53.444;9.902;2023-05-10T14:25:51;7.30;;;6.57;;
3997;SDS011;61314;53.444;9.902;2023-05-10T14:28:18;8.73;;;8.03;;
3997;SDS011;61314;53.444;9.902;2023-05-10T14:30:46;7.90;;;7.30;;
3997;SDS011;61314;53.444;9.902;2023-05-10T14:33:13;8.80;;;8.10;;
3997;SDS011;61314;53.444;9.902;2023-05-10T14:35:40;8.70;;;7.97;;
3997;SDS011;61314;53.444;9.902;2023-05-10T14:38:08;7.70;;;7.10;;
3997;SDS011;61314;53.444;9.902;2023-05-10T14:40:35;7.03;;;6.53;;
3997;SDS011;61314;53.444;9.902;2023-05-10T14:43:02;8.63;;;7.67;;
3997;SDS011;61314;53.444;9.902;2023-05-10T14:45:29;8.17;;;7.37;;
3997;SDS011;61314;53.444;9.902;2023-05-10T14:47:56;8.07;;;7.47;;
3997;SDS011;61314;53.444;9.902;2023-05-10T14:50:23;7.20;;;6.60;;
3997;SDS011;61314;53.444;9.902;2023-05-10T14:52:57;6.80;;;6.30;;
3997;SDS011;61314;53.444;9.902;2023-05-10T14:55:25;10.03;;;6.20;;
3997;SDS011;61314;53.444;9.902;2023-05-10T14:57:52;6.87;;;6.37;;
3997;SDS011;61314;53.444;9.902;2023-05-10T15:00:20;6.83;;;6.07;;
3997;SDS011;61314;53.444;9.902;2023-05-10T15:02:48;5.43;;;5.13;;
3997;SDS011;61314;53.444;9.902;2023-05-10T15:05:15;6.70;;;6.10;;
3997;SDS011;61314;53.444;9.902;2023-05-10T15:07:43;6.73;;;6.13;;
3997;SDS011;61314;53.444;9.902;2023-05-10T15:10:11;7.40;;;6.70;;
3997;SDS011;61314;53.444;9.902;2023-05-10T15:12:38;6.80;;;6.30;;
3997;SDS011;61314;53.444;9.902;2023-05-10T15:15:05;6.50;;;5.90;;
3997;SDS011;61314;53.444;9.902;2023-05-10T15:17:33;7.20;;;5.67;;
3997;SDS011;61314;53.444;9.902;2023-05-10T15:20:00;5.30;;;5.00;;
3997;SDS011;61314;53.444;9.902;2023-05-10T15:22:29;5.60;;;5.10;;
3997;SDS011;61314;53.444;9.902;2023-05-10T15:24:59;5.43;;;5.03;;
3997;SDS011;61314;53.444;9.902;2023-05-10T15:27:26;6.13;;;5.63;;